Latest Weather Observations for Mardie

IDW60801

Issued at 2:33 pm WST Monday 26 September 2016 (issued every 30 minutes, with the page automatically refreshed every 10 minutes)

About weather observations | Map of weather stations | Latest weather observations for WA | Other Formats
Station Details ID: 005008 Name: MARDIE Lat: -21.19 Lon: 115.98 Height: 11.0 m
Data from the previous 72 hours. | See also: Recent months at Mardie
Date/Time
WST
Temp
°C
App
Temp
°C
Dew
Point
°C
Rel
Hum
%
Delta-T
°C
Wind Press
QNH
hPa
Press
MSL
hPa
Rain since
9am
mm
Dir  Spd
km/h
Gust
km/h
Spd
kts
Gust
kts
26/02:30pm 31.4 27.4 0.7 14 15.0 NNE 11 32 6 17 1008.4 1008.4 0.0
26/02:00pm 33.3 27.3 -7.1 7 17.6 S 17 28 9 15 1008.8 1008.8 0.0
26/01:30pm 32.9 27.2 -7.4 7 17.3 SSE 15 32 8 17 1009.1 1009.1 0.0
26/01:00pm 32.2 26.6 -6.2 8 16.8 ESE 15 24 8 13 1009.6 1009.6 0.0
26/12:30pm 31.8 26.6 -6.5 8 16.6 SE 13 28 7 15 1010.1 1010.1 0.0
26/12:00pm 31.7 26.5 -6.6 8 16.6 SSE 13 41 7 22 1010.6 1010.6 0.0
26/11:30am 30.6 24.7 -5.8 9 15.8 SSE 17 32 9 17 1011.2 1011.2 0.0
26/11:00am 30.2 24.3 -6.1 9 15.6 SSE 17 28 9 15 1011.7 1011.7 0.0
26/10:30am 28.7 22.4 -5.9 10 14.7 SSE 19 28 10 15 1012.0 1012.0 0.0
26/10:00am 28.0 21.8 -5.2 11 14.2 SSE 19 32 10 17 1012.2 1012.2 0.0
26/09:30am 26.9 20.7 -4.9 12 13.6 S 19 28 10 15 1012.5 1012.5 0.0
26/09:00am 25.1 18.4 -4.2 14 12.5 S 22 30 12 16 1012.5 1012.5 0.0
26/08:30am 22.8 16.7 -2.0 19 10.8 S 20 28 11 15 1012.6 1012.6 0.0
26/08:00am 20.3 14.5 -1.5 23 9.4 S 19 26 10 14 1012.4 1012.4 0.0
26/07:30am 18.6 12.7 -0.7 27 8.3 SSW 20 26 11 14 1012.3 1012.3 0.0
26/07:00am 15.6 11.2 0.2 35 6.6 SW 13 15 7 8 1012.0 1012.0 0.0
26/06:30am 15.4 11.4 0.4 36 6.4 SSW 11 15 6 8 1011.9 1011.9 0.0
26/06:00am 15.7 11.8 1.4 38 6.3 SSW 11 17 6 9 1011.6 1011.6 0.0
26/05:30am 15.4 11.3 2.2 41 5.9 SSW 13 17 7 9 1011.1 1011.1 0.0
26/05:00am 15.7 11.3 2.5 41 5.9 SSW 15 20 8 11 1010.9 1010.9 0.0
26/04:30am 15.9 11.9 3.0 42 5.9 SSW 13 19 7 10 1010.8 1010.8 0.0
26/04:00am 16.6 12.3 3.3 41 6.1 SSW 15 20 8 11 1010.6 1010.6 0.0
26/03:30am 17.1 12.4 3.4 40 6.3 SSW 17 22 9 12 1010.5 1010.5 0.0
26/03:00am 17.8 13.3 4.0 40 6.5 SSW 17 22 9 12 1010.6 1010.6 0.0
26/02:30am 18.7 13.5 3.7 37 7.1 SSW 20 28 11 15 1010.7 1010.7 0.0
26/02:00am 19.2 14.0 3.8 36 7.3 SSW 20 28 11 15 1011.0 1011.0 0.0
26/01:30am 19.4 14.0 4.4 37 7.2 SW 22 30 12 16 1011.1 1011.1 0.0
26/01:00am 19.4 14.4 4.4 37 7.2 SW 20 26 11 14 1011.4 1011.4 0.0
26/12:30am 19.8 14.6 3.5 34 7.7 SW 20 28 11 15 1011.6 1011.6 0.0
26/12:00am 20.2 14.2 1.1 28 8.6 SW 22 28 12 15 1011.8 1011.8 0.0
 
Date/Time
WST
Temp
°C
App
Temp
°C
Dew
Point
°C
Rel
Hum
%
Delta-T
°C
Wind Press
QNH
hPa
Press
MSL
hPa
Rain since
9am
mm
Dir  Spd
km/h
Gust
km/h
Spd
kts
Gust
kts
25/11:30pm 20.5 15.4 2.8 31 8.3 WSW 19 28 10 15 1012.0 1012.0 0.0
25/11:00pm 20.4 15.9 2.3 30 8.4 WSW 15 20 8 11 1012.1 1012.1 0.0
25/10:30pm 20.5 16.1 2.8 31 8.3 WSW 15 19 8 10 1012.1 1012.1 0.0
25/10:00pm 21.1 16.8 3.3 31 8.5 WSW 15 19 8 10 1012.0 1012.0 0.0
25/09:30pm 21.3 18.2 8.9 45 6.6 WSW 15 19 8 10 1011.8 1011.8 0.0
25/09:00pm 21.9 19.1 11.3 51 5.9 WSW 17 22 9 12 1011.6 1011.6 0.0
25/08:30pm 21.5 19.2 12.9 58 4.9 W 17 22 9 12 1011.2 1011.2 0.0
25/08:00pm 21.9 19.3 13.8 60 4.7 W 20 28 11 15 1010.9 1010.9 0.0
25/07:30pm 22.1 18.6 13.5 58 5.0 W 24 37 13 20 1010.6 1010.6 0.0
25/07:00pm 22.1 18.5 13.2 57 5.1 W 24 33 13 18 1010.2 1010.2 0.0
25/06:30pm 22.4 17.5 12.6 54 5.6 W 30 39 16 21 1009.8 1009.8 0.0
25/06:00pm 23.1 17.6 11.8 49 6.4 W 32 43 17 23 1009.4 1009.4 0.0
25/05:30pm 24.1 18.3 11.4 45 7.1 W 33 44 18 24 1009.1 1009.1 0.0
25/05:00pm 24.7 18.4 10.9 42 7.7 W 35 48 19 26 1008.7 1008.7 0.0
25/04:30pm 25.7 18.7 9.9 37 8.7 W 37 48 20 26 1008.5 1008.5 0.0
25/04:00pm 26.7 19.6 8.2 31 10.0 W 35 48 19 26 1008.5 1008.5 0.0
25/03:30pm 27.6 19.9 6.9 27 11.0 W 37 48 20 26 1008.5 1008.5 0.0
25/03:18pm 27.8 20.7 6.6 26 11.2 W 33 52 18 28 1008.3 1008.3 0.0
25/03:00pm 28.0 20.7 7.3 27 11.1 W 35 50 19 27 1008.5 1008.5 0.0
25/02:30pm 28.5 21.7 7.1 26 11.4 WNW 32 48 17 26 1008.5 1008.5 0.0
25/02:00pm 29.9 24.9 6.5 23 12.5 W 22 41 12 22 1008.9 1008.9 0.0
25/01:30pm 30.2 24.4 -4.8 10 15.4 SW 17 33 9 18 1009.3 1009.3 0.0
25/01:00pm 30.3 25.0 -3.4 11 15.2 WSW 15 22 8 12 1009.7 1009.7 0.0
25/12:30pm 28.9 23.0 -2.3 13 14.2 SW 19 33 10 18 1010.3 1010.3 0.0
25/12:00pm 28.9 23.1 -1.2 14 14.0 SSW 19 30 10 16 1010.8 1010.8 0.0
25/11:30am 28.2 22.4 -1.8 14 13.7 SSW 19 30 10 16 1011.4 1011.4 0.0
25/11:00am 27.7 21.1 -0.4 16 13.1 SSW 24 33 13 18 1011.8 1011.8 0.0
25/10:30am 26.7 20.2 0.4 18 12.3 SSW 24 32 13 17 1011.9 1011.9 0.0
25/10:00am 26.1 19.8 1.4 20 11.8 SSW 24 33 13 18 1012.0 1012.0 0.0
25/09:30am 24.7 18.0 1.6 22 10.9 SSW 26 35 14 19 1012.2 1012.2 0.0
25/09:00am 23.0 16.4 1.9 25 9.9 SSW 26 37 14 20 1012.1 1012.1 0.0
25/08:30am 21.4 14.4 2.2 28 9.0 SSW 28 35 15 19 1012.0 1012.0 0.0
25/08:00am 19.4 12.4 1.9 31 8.0 SSW 28 39 15 21 1011.9 1011.9 0.0
25/07:30am 18.0 11.8 2.3 35 7.1 SSW 24 33 13 18 1011.7 1011.7 0.0
25/07:00am 15.9 10.7 2.7 41 6.0 SSW 19 24 10 13 1011.7 1011.7 0.0
25/06:30am 13.3 9.7 2.8 49 4.6 SSW 11 15 6 8 1011.5 1011.5 0.0
25/06:00am 11.8 8.2 3.1 55 3.8 SW 11 15 6 8 1011.2 1011.2 0.0
25/05:30am 11.9 8.3 3.2 55 3.8 SW 11 13 6 7 1011.0 1011.0 0.0
25/05:00am 12.8 8.9 3.5 53 4.2 SW 13 17 7 9 1010.8 1010.8 0.0
25/04:30am 13.0 9.6 3.9 54 4.1 SW 11 15 6 8 1010.8 1010.8 0.0
25/04:00am 13.5 10.2 4.4 54 4.2 SW 11 17 6 9 1010.7 1010.7 0.0
25/03:30am 14.0 10.7 4.3 52 4.5 SW 11 15 6 8 1010.8 1010.8 0.0
25/03:00am 15.1 11.9 5.0 51 4.8 SW 11 15 6 8 1010.8 1010.8 0.0
25/02:30am 15.1 12.6 6.7 57 4.1 SW 9 13 5 7 1010.7 1010.7 0.0
25/02:00am 15.0 13.0 8.5 65 3.3 WSW 9 11 5 6 1010.8 1010.8 0.0
25/01:30am 15.7 13.9 9.4 66 3.3 WSW 9 11 5 6 1010.9 1010.9 0.0
25/01:00am 16.7 15.4 11.2 70 3.0 WSW 9 13 5 7 1011.2 1011.2 0.0
25/12:30am 17.3 16.5 13.0 76 2.4 WSW 9 13 5 7 1011.3 1011.3 0.0
25/12:00am 17.8 17.6 13.7 77 2.3 W 7 9 4 5 1011.4 1011.4 0.0
 
Date/Time
WST
Temp
°C
App
Temp
°C
Dew
Point
°C
Rel
Hum
%
Delta-T
°C
Wind Press
QNH
hPa
Press
MSL
hPa
Rain since
9am
mm
Dir  Spd
km/h
Gust
km/h
Spd
kts
Gust
kts
24/11:30pm 18.7 18.3 14.0 74 2.7 W 9 11 5 6 1011.6 1011.6 0.0
24/11:00pm 19.3 19.1 14.8 75 2.6 WNW 9 11 5 6 1011.8 1011.8 0.0
24/10:30pm 19.8 19.3 15.0 74 2.8 WNW 11 13 6 7 1012.1 1012.1 0.0
24/10:00pm 20.3 19.9 15.3 73 3.0 WNW 11 15 6 8 1012.2 1012.2 0.0
24/09:30pm 20.1 20.3 14.7 71 3.2 WNW 7 13 4 7 1012.4 1012.4 0.0
24/09:00pm 19.3 18.6 13.3 68 3.4 NW 9 11 5 6 1012.3 1012.3 0.0
24/08:30pm 20.0 19.2 13.0 64 4.0 NW 9 11 5 6 1012.1 1012.1 0.0
24/08:00pm 21.0 19.4 12.7 59 4.7 WNW 13 17 7 9 1011.8 1011.8 0.0
24/07:30pm 21.0 20.1 12.7 59 4.7 WNW 9 15 5 8 1011.5 1011.5 0.0
24/07:00pm 21.6 20.0 12.7 57 5.1 WNW 13 19 7 10 1011.3 1011.3 0.0
24/06:30pm 22.1 19.5 12.1 53 5.6 WNW 17 24 9 13 1011.1 1011.1 0.0
24/06:00pm 22.7 20.2 13.5 56 5.3 WNW 19 28 10 15 1010.9 1010.9 0.0
24/05:30pm 23.6 20.4 12.0 48 6.6 WNW 20 30 11 16 1010.8 1010.8 0.0
24/05:00pm 24.7 19.8 9.8 39 8.2 WNW 26 37 14 20 1010.6 1010.6 0.0
24/04:30pm 26.0 20.5 6.1 28 10.3 WNW 24 35 13 19 1010.4 1010.4 0.0
24/04:00pm 27.3 22.2 6.1 26 11.1 WNW 22 30 12 16 1010.4 1010.4 0.0
24/03:30pm 27.5 22.1 4.5 23 11.7 WNW 22 30 12 16 1010.2 1010.2 0.0
24/03:00pm 27.7 21.6 2.7 20 12.3 WNW 24 32 13 17 1010.2 1010.2 0.0
24/02:30pm 27.7 21.5 4.1 22 11.9 NW 26 33 14 18 1010.4 1010.4 0.0
24/02:00pm 28.4 22.9 4.0 21 12.4 NW 22 30 12 16 1010.6 1010.6 0.0
24/01:30pm 28.1 22.0 5.0 23 11.9 WNW 26 39 14 21 1010.9 1010.9 0.0
24/01:00pm 28.8 25.3 1.3 17 13.3 S 9 28 5 15 1011.1 1011.1 0.0
24/12:30pm 29.0 25.1 -7.0 9 15.1 NW 6 11 3 6 1011.5 1011.5 0.0
24/12:00pm 28.5 24.5 -7.4 9 14.9 W 6 15 3 8 1012.0 1012.0 0.0
24/11:30am 27.8 23.5 -5.3 11 14.1 SE 9 15 5 8 1012.5 1012.5 0.0
24/11:00am 27.0 23.3 -4.8 12 13.6 E 6 11 3 6 1012.9 1012.9 0.0
24/10:30am 26.6 22.6 -2.1 15 12.9 S 9 19 5 10 1013.2 1013.2 0.0
24/10:00am 25.6 21.1 -0.5 18 11.9 SSE 13 22 7 12 1013.6 1013.6 0.0
24/09:30am 24.9 19.9 1.1 21 11.2 SSE 17 22 9 12 1014.0 1014.0 0.0
24/09:00am 23.9 19.3 1.5 23 10.5 SSE 15 24 8 13 1014.1 1014.1 0.0
24/08:30am 22.0 17.0 1.6 26 9.5 S 17 22 9 12 1014.0 1014.0 0.0
24/08:00am 20.5 15.9 1.4 28 8.7 S 15 22 8 12 1013.8 1013.8 0.0
24/07:30am 17.9 12.8 0.6 31 7.6 S 17 24 9 13 1013.5 1013.5 0.0
24/07:00am 15.0 11.3 0.1 36 6.3 SSW 9 13 5 7 1013.2 1013.2 0.0
24/06:30am 12.9 9.1 -0.4 40 5.5 SSW 9 13 5 7 1012.9 1012.9 0.0
24/06:00am 12.6 8.4 -0.6 40 5.4 SSW 11 15 6 8 1012.5 1012.5 0.0
24/05:30am 12.7 8.9 -0.9 39 5.5 SSW 9 11 5 6 1012.1 1012.1 0.0
24/05:00am 13.1 9.7 -0.9 38 5.7 SSW 7 13 4 7 1011.9 1011.9 0.0
24/04:30am 13.7 9.1 -0.7 37 5.9 SSW 13 17 7 9 1011.5 1011.5 0.0
24/04:00am 14.0 9.4 -0.8 36 6.1 S 13 15 7 8 1011.4 1011.4 0.0
24/03:30am 13.7 9.5 -0.7 37 5.9 S 11 11 6 6 1011.4 1011.4 0.0
24/03:00am 14.5 11.0 -1.2 34 6.4 S 7 11 4 6 1011.4 1011.4 0.0
24/02:30am 15.3 10.3 -0.9 33 6.7 S 15 17 8 9 1011.5 1011.5 0.0
24/02:00am 15.3 10.7 -0.9 33 6.7 S 13 15 7 8 1011.6 1011.6 0.0
24/01:30am 15.7 11.2 -0.5 33 6.8 S 13 15 7 8 1011.7 1011.7 0.0
24/01:00am 16.1 12.0 -0.2 33 6.9 S 11 13 6 7 1011.8 1011.8 0.0
24/12:30am 17.1 12.6 -0.1 31 7.4 SSW 13 17 7 9 1011.9 1011.9 0.0
24/12:00am 18.0 14.0 0.2 30 7.8 SSW 11 15 6 8 1012.1 1012.1 0.0
 
Date/Time
WST
Temp
°C
App
Temp
°C
Dew
Point
°C
Rel
Hum
%
Delta-T
°C
Wind Press
QNH
hPa
Press
MSL
hPa
Rain since
9am
mm
Dir  Spd
km/h
Gust
km/h
Spd
kts
Gust
kts
23/11:30pm 19.0 14.3 0.6 29 8.2 SSW 15 19 8 10 1012.0 1012.0 0.0
23/11:00pm 19.9 14.8 0.9 28 8.5 SSW 17 20 9 11 1012.1 1012.1 0.0
23/10:30pm 19.7 15.4 1.2 29 8.3 SSW 13 15 7 8 1012.2 1012.2 0.0
23/10:00pm 20.6 16.4 1.5 28 8.7 SSW 13 15 7 8 1012.3 1012.3 0.0
23/09:30pm 21.4 17.3 2.2 28 9.0 SSW 13 17 7 9 1012.2 1012.2 0.0
23/09:00pm 21.1 17.7 1.9 28 8.9 SSW 9 11 5 6 1011.9 1011.9 0.0
23/08:30pm 22.8 18.7 2.3 26 9.7 SSW 13 19 7 10 1011.5 1011.5 0.0
23/08:00pm 23.3 19.3 2.7 26 9.9 SSW 13 19 7 10 1011.2 1011.2 0.0
23/07:30pm 23.0 19.8 3.0 27 9.6 SSW 9 11 5 6 1010.9 1010.9 0.0
23/07:00pm 24.8 21.3 3.5 25 10.5 SSW 11 13 6 7 1010.4 1010.4 0.0
23/06:30pm 26.8 21.6 2.7 21 11.8 SSW 19 24 10 13 1009.9 1009.9 0.0
23/06:00pm 27.8 22.3 2.1 19 12.6 SSW 20 30 11 16 1009.7 1009.7 0.0
23/05:30pm 28.6 22.4 2.0 18 13.0 S 24 33 13 18 1009.5 1009.5 0.0
23/05:00pm 29.1 23.0 0.7 16 13.7 SSW 22 32 12 17 1009.2 1009.2 0.0
23/04:30pm 29.4 23.3 2.6 18 13.3 SSW 24 37 13 20 1009.2 1009.2 0.0
23/04:00pm 29.6 24.3 2.8 18 13.4 SSW 20 35 11 19 1009.1 1009.1 0.0
23/03:30pm 29.7 24.7 3.6 19 13.2 SW 19 32 10 17 1009.2 1009.2 0.0
23/03:00pm 30.0 25.1 3.9 19 13.3 SW 19 32 10 17 1009.4 1009.4 0.0

Other Formats:

Comma delimited format used in spreadsheet applications
http://www.bom.gov.au/fwo/IDW60801/IDW60801.94306.axf

JavaScript Object Notation format (JSON) in row-major order
http://www.bom.gov.au/fwo/IDW60801/IDW60801.94306.json